Sousse, Tunisia
Current Conditions -  °F | °C
As of 4:00 PM on Sunday 23 Nov 2014 (Local Time) from DTMB Reporting Station
Clear Clear  
Wind Chill: 22°   Ceiling: Unl
Heat Index: 22°   Visibility: 6mi
Dew Point: 19°   Wind: 13mph
Humidity: 83%   Direction: 80°E
Pressure: 30.21"   Gusts: NA
Location:  35.82°N, 10.63°E
Report Text: DTMB 231500Z 08011KT CAVOK 22/19 Q1023 NOSIG
Loading
Personal Weather Stations






























Interactive Weather Map New forecast layout! Learn more

10-Day Weather Forecast

Advertisements
Track Severe Weather on mobile